createdAt,value
2022-10-24T04:03:02.427Z,15.40
2022-10-24T04:05:31.958Z,15.40
2022-10-24T04:07:59.965Z,15.30
2022-10-24T04:10:28.545Z,15.30
2022-10-24T04:12:56.548Z,15.20
2022-10-24T04:15:24.723Z,15.20
2022-10-24T04:17:52.675Z,15.20
2022-10-24T04:20:22.579Z,15.10
2022-10-24T04:22:51.977Z,15.10
2022-10-24T04:25:20.405Z,15.10
2022-10-24T04:27:48.527Z,15.00
2022-10-24T04:30:17.314Z,15.00
2022-10-24T04:32:45.658Z,15.00
2022-10-24T04:35:14.166Z,14.90
2022-10-24T04:37:42.173Z,15.00
2022-10-24T04:40:12.466Z,15.10
2022-10-24T04:42:41.282Z,15.10
2022-10-24T04:45:10.636Z,15.00
2022-10-24T04:47:38.601Z,15.00
2022-10-24T04:50:07.549Z,15.00
2022-10-24T04:52:35.535Z,15.00
2022-10-24T04:55:03.607Z,15.00
2022-10-24T04:57:32.929Z,14.90
2022-10-24T05:00:00.924Z,15.00
2022-10-24T05:02:28.904Z,14.90
2022-10-24T05:04:56.936Z,14.90
2022-10-24T05:07:24.932Z,15.00
2022-10-24T05:09:52.914Z,15.00
2022-10-24T05:12:20.979Z,15.00
2022-10-24T05:14:50.368Z,14.90
2022-10-24T05:17:20.078Z,15.00
2022-10-24T05:19:48.368Z,15.00
2022-10-24T05:22:16.349Z,15.00
2022-10-24T05:24:44.357Z,15.00
2022-10-24T05:27:12.435Z,15.00
2022-10-24T05:29:40.445Z,15.10
2022-10-24T05:32:09.867Z,15.00
2022-10-24T05:34:37.873Z,15.00
2022-10-24T05:37:05.879Z,14.90
2022-10-24T05:39:34.044Z,14.90
2022-10-24T05:42:01.997Z,15.00
2022-10-24T05:44:30.165Z,14.90
2022-10-24T05:46:58.198Z,14.90
2022-10-24T05:49:27.614Z,14.90
2022-10-24T05:51:55.680Z,14.90
2022-10-24T05:54:23.673Z,14.90
2022-10-24T05:56:51.917Z,15.00
2022-10-24T05:59:19.856Z,15.00
2022-10-24T06:01:47.965Z,15.10
2022-10-24T06:04:15.988Z,15.00
2022-10-24T06:06:46.557Z,15.00
2022-10-24T06:09:16.556Z,15.10
2022-10-24T06:11:44.592Z,15.10
2022-10-24T06:14:12.874Z,15.10
2022-10-24T06:16:40.897Z,15.10
2022-10-24T06:19:08.898Z,15.00
2022-10-24T06:21:37.843Z,15.10
2022-10-24T06:24:07.905Z,15.10
2022-10-24T06:26:35.879Z,15.10
2022-10-24T06:29:03.914Z,15.10
2022-10-24T06:31:32.091Z,15.20
2022-10-24T06:34:00.060Z,15.30
2022-10-24T06:36:30.709Z,15.20
2022-10-24T06:39:54.165Z,15.30
2022-10-24T06:42:22.202Z,15.20
2022-10-24T06:44:51.278Z,15.20
2022-10-24T06:47:19.385Z,15.20
2022-10-24T06:49:47.350Z,15.20
2022-10-24T06:52:15.417Z,15.20
2022-10-24T06:54:44.804Z,15.20
2022-10-24T06:57:12.816Z,15.30
2022-10-24T06:59:40.845Z,15.20
2022-10-24T07:02:10.523Z,15.30
2022-10-24T07:04:38.548Z,15.20
2022-10-24T07:07:06.756Z,15.30
2022-10-24T07:09:34.764Z,15.30
2022-10-24T07:12:04.341Z,15.30
2022-10-24T07:14:32.357Z,15.30
2022-10-24T07:17:00.328Z,15.30
2022-10-24T07:19:35.181Z,15.30
2022-10-24T07:22:14.133Z,15.30
2022-10-24T07:24:42.116Z,15.40
2022-10-24T07:27:11.513Z,15.50
2022-10-24T07:29:40.125Z,15.50
2022-10-24T07:32:22.020Z,15.60
2022-10-24T07:34:49.976Z,15.60
2022-10-24T07:37:18.308Z,15.70
2022-10-24T07:39:46.709Z,15.70
2022-10-24T07:42:16.737Z,15.80
2022-10-24T07:44:49.843Z,15.80
2022-10-24T07:47:20.978Z,15.80
2022-10-24T07:50:03.262Z,15.90
2022-10-24T07:52:31.257Z,16.00
2022-10-24T07:54:59.304Z,16.20
2022-10-24T07:57:32.817Z,16.40
2022-10-24T08:00:20.404Z,16.30
2022-10-24T08:05:19.472Z,16.40
2022-10-24T08:08:00.351Z,16.40
2022-10-24T08:10:33.568Z,16.50
2022-10-24T08:13:03.020Z,16.50
2022-10-24T08:15:32.009Z,16.40
2022-10-24T08:17:59.989Z,16.40
2022-10-24T08:20:28.018Z,16.50
2022-10-24T08:22:55.989Z,16.50
2022-10-24T08:25:23.956Z,16.60
2022-10-24T08:27:52.014Z,16.70
2022-10-24T08:30:21.980Z,16.80
2022-10-24T08:32:50.046Z,16.90
2022-10-24T08:35:19.198Z,16.90
2022-10-24T08:37:47.397Z,17.00
2022-10-24T08:40:17.561Z,17.00
2022-10-24T08:42:46.198Z,17.00
2022-10-24T08:45:17.827Z,17.00
2022-10-24T08:47:51.176Z,17.10
2022-10-24T08:50:27.231Z,17.10
2022-10-24T08:52:59.927Z,17.10
2022-10-24T08:55:49.480Z,17.10
2022-10-24T08:58:19.910Z,17.10
2022-10-24T09:00:50.085Z,17.10
2022-10-24T09:03:43.557Z,17.10
2022-10-24T09:06:17.766Z,17.00
2022-10-24T09:08:52.126Z,17.00
2022-10-24T09:11:26.078Z,17.00
2022-10-24T09:13:54.124Z,17.00
2022-10-24T09:16:23.873Z,17.00
2022-10-24T09:18:55.685Z,17.00
2022-10-24T09:21:24.634Z,17.00
2022-10-24T09:23:53.358Z,17.00
2022-10-24T09:26:27.812Z,17.00
2022-10-24T09:28:57.067Z,17.00
2022-10-24T09:31:27.025Z,17.00
2022-10-24T09:34:00.264Z,16.90
2022-10-24T09:36:31.207Z,16.90
2022-10-24T09:39:26.332Z,16.90
2022-10-24T09:41:54.698Z,16.90
2022-10-24T09:44:32.429Z,17.00
2022-10-24T09:47:00.809Z,17.00
2022-10-24T09:49:35.658Z,17.00
2022-10-24T09:52:14.853Z,17.00
2022-10-24T09:54:42.866Z,17.00
2022-10-24T09:59:45.831Z,17.00
2022-10-24T10:02:29.484Z,17.00
2022-10-24T10:05:19.811Z,17.00
2022-10-24T10:07:49.979Z,17.00
2022-10-24T10:10:29.121Z,17.00
2022-10-24T10:13:03.152Z,17.00
2022-10-24T10:15:35.204Z,17.00
2022-10-24T10:18:41.415Z,17.00
2022-10-24T10:21:14.944Z,17.00
2022-10-24T10:23:45.387Z,17.10
2022-10-24T10:26:20.335Z,17.40
2022-10-24T10:29:00.822Z,17.60
2022-10-24T10:31:35.309Z,17.60
2022-10-24T10:34:23.040Z,17.60
2022-10-24T10:37:09.875Z,17.60
2022-10-24T10:40:11.274Z,17.60
2022-10-24T10:42:47.280Z,17.60
2022-10-24T10:45:19.319Z,17.60
2022-10-24T10:47:56.065Z,17.60
2022-10-24T10:50:29.357Z,17.60
2022-10-24T10:53:26.604Z,17.60
2022-10-24T10:56:00.213Z,17.70
2022-10-24T10:58:34.770Z,17.70
2022-10-24T11:01:10.557Z,17.70
2022-10-24T11:03:44.695Z,17.70
2022-10-24T11:06:27.621Z,17.60
2022-10-24T11:09:19.684Z,17.60
2022-10-24T11:11:51.128Z,17.60
2022-10-24T11:14:27.602Z,17.60
2022-10-24T11:16:59.050Z,17.50
2022-10-24T11:19:44.619Z,17.50
2022-10-24T11:22:18.295Z,17.50
2022-10-24T11:24:53.305Z,17.50
2022-10-24T11:27:26.489Z,17.50
2022-10-24T11:29:58.467Z,17.50
2022-10-24T11:32:31.018Z,17.50
2022-10-24T11:35:01.913Z,17.50
2022-10-24T11:37:33.836Z,17.50
2022-10-24T11:40:07.424Z,17.50
2022-10-24T11:42:41.277Z,17.50
2022-10-24T11:45:16.705Z,17.50
2022-10-24T11:47:53.653Z,17.50
2022-10-24T11:50:27.692Z,17.50
2022-10-24T11:52:58.280Z,17.50
2022-10-24T11:55:31.517Z,17.50
2022-10-24T11:58:00.129Z,17.50
2022-10-24T12:00:32.625Z,17.50
2022-10-24T12:03:54.176Z,17.50
2022-10-24T12:06:47.937Z,17.40
2022-10-24T12:09:30.678Z,17.40
2022-10-24T12:12:25.859Z,17.40
2022-10-24T12:15:02.877Z,17.40
2022-10-24T12:18:00.927Z,17.30
2022-10-24T12:20:29.328Z,17.30
2022-10-24T12:22:57.923Z,17.30
2022-10-24T12:25:30.866Z,17.20
2022-10-24T12:28:01.425Z,17.20
2022-10-24T12:30:32.328Z,17.20
2022-10-24T12:33:10.044Z,17.10
2022-10-24T12:35:49.432Z,17.10
2022-10-24T12:38:22.407Z,17.00
2022-10-24T12:40:55.638Z,17.00
2022-10-24T12:43:33.929Z,16.90
2022-10-24T12:46:09.500Z,16.90
2022-10-24T12:48:42.933Z,16.90
2022-10-24T12:51:30.941Z,16.90
2022-10-24T12:54:17.045Z,16.90
2022-10-24T12:57:24.669Z,16.90
2022-10-24T12:59:55.658Z,16.90
2022-10-24T13:02:43.659Z,16.90
2022-10-24T13:05:19.204Z,17.00
2022-10-24T13:07:57.537Z,17.00
2022-10-24T13:10:49.900Z,17.10
2022-10-24T13:13:40.780Z,17.20
2022-10-24T13:16:20.839Z,17.20
2022-10-24T13:18:57.701Z,17.20
2022-10-24T13:21:31.072Z,17.20
2022-10-24T13:24:12.266Z,17.20
2022-10-24T13:26:42.766Z,17.30
2022-10-24T13:29:15.791Z,17.40
2022-10-24T13:31:47.893Z,17.40
2022-10-24T13:34:37.215Z,17.60
2022-10-24T13:37:15.838Z,17.70
2022-10-24T13:39:50.381Z,17.70
2022-10-24T13:42:26.872Z,17.70
2022-10-24T13:44:59.616Z,17.80
2022-10-24T13:47:32.859Z,17.80
2022-10-24T13:50:03.145Z,17.90
2022-10-24T13:52:49.097Z,18.00
2022-10-24T13:55:23.384Z,18.00
2022-10-24T13:57:53.940Z,18.10
2022-10-24T14:00:24.455Z,18.30
2022-10-24T14:02:54.483Z,18.40
2022-10-24T14:05:30.428Z,18.50
2022-10-24T14:07:59.171Z,18.60
2022-10-24T14:10:27.750Z,18.80
2022-10-24T14:12:57.399Z,19.00
2022-10-24T14:15:28.327Z,19.10
2022-10-24T14:18:00.222Z,19.10
2022-10-24T14:20:31.175Z,19.20
2022-10-24T14:22:59.590Z,19.20
2022-10-24T14:25:35.254Z,19.30
2022-10-24T14:28:05.137Z,19.30
2022-10-24T14:30:34.947Z,19.30
2022-10-24T14:33:22.039Z,19.30
2022-10-24T14:35:52.453Z,19.20
2022-10-24T14:38:24.278Z,19.10
2022-10-24T14:41:06.418Z,19.10
2022-10-24T14:43:39.843Z,19.20
2022-10-24T14:46:42.188Z,19.30
2022-10-24T14:49:33.967Z,19.30
2022-10-24T14:52:08.501Z,19.30
2022-10-24T14:54:37.582Z,19.20
2022-10-24T14:57:19.371Z,19.00
2022-10-24T14:59:48.993Z,18.90
2022-10-24T15:02:22.297Z,18.80
2022-10-24T15:04:52.007Z,18.80
2022-10-24T15:07:31.025Z,18.70
2022-10-24T15:10:00.716Z,18.70
2022-10-24T15:12:32.922Z,18.50
2022-10-24T15:15:21.553Z,18.50
2022-10-24T15:17:50.878Z,18.40
2022-10-24T15:20:22.255Z,18.40
2022-10-24T15:22:51.505Z,18.30
2022-10-24T15:27:59.361Z,18.20
2022-10-24T15:30:29.138Z,18.10
2022-10-24T15:33:01.918Z,18.10
2022-10-24T15:35:32.481Z,18.10
2022-10-24T15:38:05.071Z,18.00
2022-10-24T15:40:34.732Z,17.90
2022-10-24T15:43:02.954Z,17.90
2022-10-24T15:45:31.996Z,17.80
2022-10-24T15:48:00.030Z,17.80
2022-10-24T15:50:31.375Z,17.80
2022-10-24T15:53:03.493Z,17.80
2022-10-24T15:55:32.853Z,17.70
2022-10-24T15:58:01.197Z,17.70
2022-10-24T16:00:29.225Z,17.70
2022-10-24T16:03:00.726Z,17.60
2022-10-24T16:05:35.272Z,17.60
2022-10-24T16:08:03.236Z,17.60
2022-10-24T16:10:31.253Z,17.50
2022-10-24T16:12:59.230Z,17.30
2022-10-24T16:15:29.044Z,17.30
2022-10-24T16:17:57.104Z,17.20
2022-10-24T16:20:25.540Z,17.20
2022-10-24T16:22:54.980Z,17.10
2022-10-24T16:25:24.539Z,17.00
2022-10-24T16:27:53.369Z,16.90
2022-10-24T16:30:23.330Z,16.90
2022-10-24T16:32:52.089Z,16.90
2022-10-24T16:35:23.750Z,16.90
2022-10-24T16:37:51.908Z,16.80
2022-10-24T16:40:22.203Z,16.80
2022-10-24T16:42:50.753Z,16.80
2022-10-24T16:45:19.541Z,16.70
2022-10-24T16:47:48.047Z,16.70
2022-10-24T16:50:18.452Z,16.40
2022-10-24T16:52:46.815Z,16.40
2022-10-24T16:55:15.314Z,16.40
2022-10-24T16:57:44.952Z,16.20
2022-10-24T17:00:16.761Z,16.20
2022-10-24T17:02:45.674Z,16.20
2022-10-24T17:05:14.015Z,16.20
2022-10-24T17:07:42.942Z,16.20
2022-10-24T17:10:12.458Z,16.10
2022-10-24T17:12:40.873Z,16.10
2022-10-24T17:15:11.581Z,16.00
2022-10-24T17:17:39.922Z,16.00
2022-10-24T17:20:12.093Z,16.00
2022-10-24T17:22:52.629Z,15.90
2022-10-24T17:25:22.459Z,15.80
2022-10-24T17:27:51.183Z,15.70
2022-10-24T17:30:22.848Z,15.60
2022-10-24T17:32:51.129Z,15.60
2022-10-24T17:35:22.034Z,15.70
2022-10-24T17:37:57.687Z,15.80
2022-10-24T17:40:28.029Z,15.70
2022-10-24T17:42:56.544Z,15.70
2022-10-24T17:45:26.492Z,15.80
2022-10-24T17:47:55.516Z,15.60
2022-10-24T17:50:23.462Z,15.60
2022-10-24T17:52:52.168Z,15.60
2022-10-24T17:55:44.663Z,15.50
2022-10-24T17:58:10.941Z,15.70
2022-10-24T18:00:40.379Z,15.70
2022-10-24T18:03:08.887Z,15.60
2022-10-24T18:05:38.320Z,15.70
2022-10-24T18:08:14.419Z,15.60
2022-10-24T18:10:42.981Z,15.70
2022-10-24T18:13:11.006Z,15.40
2022-10-24T18:15:40.365Z,15.50
2022-10-24T18:18:08.451Z,15.30
2022-10-24T18:20:36.456Z,15.40
2022-10-24T18:23:05.066Z,15.30
2022-10-24T18:25:33.198Z,15.10
2022-10-24T18:28:01.270Z,15.20
2022-10-24T18:30:29.327Z,15.10
2022-10-24T18:33:16.221Z,15.10
2022-10-24T18:35:44.215Z,15.10
2022-10-24T18:38:12.205Z,15.00
2022-10-24T18:40:40.589Z,14.90
2022-10-24T18:43:09.776Z,15.00
2022-10-24T18:45:38.370Z,15.00
2022-10-24T18:48:07.213Z,15.10
2022-10-24T18:50:36.934Z,14.90
2022-10-24T18:53:08.367Z,14.80
2022-10-24T18:55:37.455Z,15.00
2022-10-24T18:58:05.762Z,15.00
2022-10-24T19:00:37.935Z,15.00
2022-10-24T19:03:16.581Z,15.00
2022-10-24T19:05:51.867Z,14.90
2022-10-24T19:08:24.052Z,14.60
2022-10-24T19:10:55.109Z,14.80
2022-10-24T19:13:24.305Z,14.80
2022-10-24T19:15:56.382Z,14.60
2022-10-24T19:18:24.709Z,14.60
2022-10-24T19:20:54.085Z,14.80
2022-10-24T19:23:22.203Z,14.80
2022-10-24T19:25:50.272Z,14.60
2022-10-24T19:28:19.973Z,14.50
2022-10-24T19:30:49.584Z,14.50
2022-10-24T19:33:44.140Z,14.50
2022-10-24T19:36:19.155Z,14.10
2022-10-24T19:38:47.331Z,14.00
2022-10-24T19:41:15.334Z,14.20
2022-10-24T19:43:43.315Z,14.30
2022-10-24T19:46:20.178Z,14.30
2022-10-24T19:48:49.474Z,14.20
2022-10-24T19:51:20.193Z,14.20
2022-10-24T19:54:04.189Z,14.30
2022-10-24T19:56:33.222Z,14.20
2022-10-24T19:59:01.304Z,14.30
2022-10-24T20:01:32.434Z,14.30
2022-10-24T20:04:02.089Z,14.40
2022-10-24T20:06:31.503Z,14.40
2022-10-24T20:08:59.518Z,14.20
2022-10-24T20:11:27.448Z,14.00
2022-10-24T20:13:55.451Z,14.10
2022-10-24T20:16:23.522Z,14.00
2022-10-24T20:18:51.562Z,13.80
2022-10-24T20:21:20.551Z,13.70
2022-10-24T20:23:50.552Z,13.60
2022-10-24T20:26:20.120Z,13.60
2022-10-24T20:28:49.991Z,13.50
